Time;durP1;ratioP1;P1;durP2;ratioP2;P2;SDS_P1;SDS_P2;PMS_P1;PMS_P2;Temp;Humidity;BMP_temperature;BMP_pressure;BME280_temperature;BME280_humidity;BME280_pressure;Samples;Min_cycle;Max_cycle;Signal;HPM_P1;HPM_P2
2022/01/21 00:01:37;;;;;;;;;;;;;;;;;;4995880;28;19922;-67
2022/01/21 00:04:04;;;;;;;;;;;;;;;;;;4996072;28;20371;-67
2022/01/21 00:06:30;;;;;;;;;;;;;;;;;;4995652;28;19984;-67
2022/01/21 00:08:57;;;;;;;;;;;;;;;;;;4995762;28;20052;-67
2022/01/21 00:11:25;;;;;;;;;;;;;;;;;;4995670;28;19929;-67
2022/01/21 00:13:52;;;;;;;;;;;;;;;;;;4995563;28;20011;-67
2022/01/21 00:16:19;;;;;;;;;;;;;;;;;;4995505;28;20313;-68
2022/01/21 00:18:54;;;;;;;;;;;;;;;;;;4995727;28;19926;-68
2022/01/21 00:32:20;;;;;;;;;;;;;;;;;;4995495;28;19922;-67
2022/01/21 00:34:47;;;;;;;;;;;;;;;;;;4995018;28;19926;-67
2022/01/21 00:37:13;;;;;;;;;;;;;;;;;;4994915;28;20360;-68
2022/01/21 00:39:40;;;;;;;;;;;;;;;;;;4995273;28;19922;-68
2022/01/21 00:42:31;;;;;;;;;;;;;;;;;;4995107;28;19929;-68
2022/01/21 00:44:59;;;;;;;;;;;;;;;;;;4995156;28;19972;-67
2022/01/21 00:47:26;;;;;;;;;;;;;;;;;;4994898;28;20355;-67
2022/01/21 00:49:53;;;;;;;;;;;;;;;;;;4995153;28;19922;-67
2022/01/21 00:52:20;;;;;;;;;;;;;;;;;;4994701;28;19925;-67
2022/01/21 00:54:46;;;;;;;;;;;;;;;;;;4994874;28;20120;-67
2022/01/21 00:57:12;;;;;;;;;;;;;;;;;;4994795;28;20336;-67
2022/01/21 00:59:39;;;;;;;;;;;;;;;;;;4994785;28;19992;-67
2022/01/21 01:02:05;;;;;;;;;;;;;;;;;;5011511;28;19921;-67
2022/01/21 01:04:32;;;;;;;;;;;;;;;;;;5014000;28;19991;-68
2022/01/21 01:06:59;;;;;;;;;;;;;;;;;;5014262;28;20395;-67
2022/01/21 01:09:25;;;;;;;;;;;;;;;;;;5014154;28;20265;-68
2022/01/21 01:19:57;;;;;;;;;;;;;;;;;;4994441;28;20373;-67
2022/01/21 01:27:54;;;;;;;;;;;;;;;;;;4994366;28;19922;-67
2022/01/21 01:30:21;;;;;;;;;;;;;;;;;;4993085;28;19922;-67
2022/01/21 01:32:48;;;;;;;;;;;;;;;;;;4994032;28;19926;-67
2022/01/21 01:35:17;;;;;;;;;;;;;;;;;;4993895;28;19925;-68
2022/01/21 01:40:35;;;;;;;;;;;;;;;;;;4994048;28;19929;-67
2022/01/21 01:50:55;;;;;;;;;;;;;;;;;;4994174;28;19921;-67
2022/01/21 01:53:27;;;;;;;;;;;;;;;;;;4993444;28;19921;-68
2022/01/21 01:55:53;;;;;;;;;;;;;;;;;;4993837;28;19922;-68
2022/01/21 01:58:20;;;;;;;;;;;;;;;;;;4993741;28;20046;-67
2022/01/21 02:00:46;;;;;;;;;;;;;;;;;;4993659;28;20357;-67
2022/01/21 02:03:14;;;;;;;;;;;;;;;;;;4993331;28;20385;-67
2022/01/21 02:05:43;;;;;;;;;;;;;;;;;;4993667;28;19926;-67
2022/01/21 02:08:10;;;;;;;;;;;;;;;;;;4993544;28;19921;-68
2022/01/21 02:10:37;;;;;;;;;;;;;;;;;;5000016;28;19925;-68
2022/01/21 02:13:16;;;;;;;;;;;;;;;;;;5012852;28;19925;-68
2022/01/21 02:15:43;;;;;;;;;;;;;;;;;;5013004;28;19992;-68
2022/01/21 02:23:40;;;;;;;;;;;;;;;;;;5009268;28;19922;-67
2022/01/21 02:26:06;;;;;;;;;;;;;;;;;;4993248;28;19922;-68
2022/01/21 02:28:33;;;;;;;;;;;;;;;;;;4994185;28;19988;-67
2022/01/21 02:30:59;;;;;;;;;;;;;;;;;;4993246;28;19921;-67
2022/01/21 02:33:26;;;;;;;;;;;;;;;;;;4992916;28;20435;-67
2022/01/21 02:35:52;;;;;;;;;;;;;;;;;;4993081;28;19921;-67
2022/01/21 02:38:19;;;;;;;;;;;;;;;;;;4993189;28;20355;-67
2022/01/21 02:40:45;;;;;;;;;;;;;;;;;;4993119;28;19922;-67
2022/01/21 02:43:12;;;;;;;;;;;;;;;;;;4992829;28;19976;-67
2022/01/21 02:45:44;;;;;;;;;;;;;;;;;;4993126;28;19925;-67
2022/01/21 02:48:11;;;;;;;;;;;;;;;;;;4992424;28;19921;-67
2022/01/21 02:50:37;;;;;;;;;;;;;;;;;;4992996;28;19922;-67
2022/01/21 02:54:04;;;;;;;;;;;;;;;;;;4992650;28;19922;-67
2022/01/21 02:55:53;;;;;;;;;;;;;;;;;;5031741;23;19921;-67
2022/01/21 02:58:20;;;;;;;;;;;;;;;;;;5031551;28;20402;-67
2022/01/21 03:00:46;;;;;;;;;;;;;;;;;;5032319;28;19990;-66
2022/01/21 03:03:13;;;;;;;;;;;;;;;;;;5032145;28;19932;-68
2022/01/21 03:05:39;;;;;;;;;;;;;;;;;;5022452;28;19921;-67
2022/01/21 03:08:06;;;;;;;;;;;;;;;;;;5011331;28;19921;-67
2022/01/21 03:10:33;;;;;;;;;;;;;;;;;;5012572;28;19922;-67
2022/01/21 03:12:59;;;;;;;;;;;;;;;;;;5012504;28;19921;-67
2022/01/21 03:15:25;;;;;;;;;;;;;;;;;;5012373;28;19991;-67
2022/01/21 03:17:52;;;;;;;;;;;;;;;;;;5012463;28;19925;-67
2022/01/21 03:20:18;;;;;;;;;;;;;;;;;;5012354;28;19921;-67
2022/01/21 03:22:45;;;;;;;;;;;;;;;;;;5012208;28;20446;-67
2022/01/21 03:25:11;;;;;;;;;;;;;;;;;;5012248;28;20015;-67
2022/01/21 03:27:38;;;;;;;;;;;;;;;;;;5012701;28;19921;-67
2022/01/21 03:30:06;;;;;;;;;;;;;;;;;;5013209;28;19926;-68
2022/01/21 03:32:33;;;;;;;;;;;;;;;;;;5012396;28;19971;-67
2022/01/21 03:34:59;;;;;;;;;;;;;;;;;;5012312;28;19968;-67
2022/01/21 03:37:26;;;;;;;;;;;;;;;;;;5012114;28;19953;-68
2022/01/21 03:39:52;;;;;;;;;;;;;;;;;;5008005;28;19922;-68
2022/01/21 03:42:19;;;;;;;;;;;;;;;;;;4992564;28;20373;-67
2022/01/21 03:44:45;;;;;;;;;;;;;;;;;;4992436;28;19921;-67
2022/01/21 03:47:12;;;;;;;;;;;;;;;;;;4992482;28;20348;-67
2022/01/21 03:49:41;;;;;;;;;;;;;;;;;;4992530;28;19933;-68
2022/01/21 03:52:08;;;;;;;;;;;;;;;;;;4992454;28;19926;-67
2022/01/21 03:54:36;;;;;;;;;;;;;;;;;;4992267;28;20392;-67
2022/01/21 03:57:02;;;;;;;;;;;;;;;;;;4992452;28;20340;-67
2022/01/21 03:59:29;;;;;;;;;;;;;;;;;;4993139;28;20336;-68
2022/01/21 04:01:56;;;;;;;;;;;;;;;;;;4994973;28;19925;-68
2022/01/21 04:04:23;;;;;;;;;;;;;;;;;;4995878;28;19922;-68
2022/01/21 04:06:49;;;;;;;;;;;;;;;;;;4996038;28;19949;-68
2022/01/21 04:09:16;;;;;;;;;;;;;;;;;;4995941;28;19948;-68
2022/01/21 04:11:42;;;;;;;;;;;;;;;;;;4996157;28;19922;-67
2022/01/21 04:14:09;;;;;;;;;;;;;;;;;;4995645;28;19921;-67
2022/01/21 04:16:35;;;;;;;;;;;;;;;;;;4994601;28;19929;-69
2022/01/21 04:19:01;;;;;;;;;;;;;;;;;;5014184;28;19929;-67
2022/01/21 04:21:28;;;;;;;;;;;;;;;;;;5015352;28;19932;-68
2022/01/21 04:23:54;;;;;;;;;;;;;;;;;;5015271;28;19991;-68
2022/01/21 04:26:21;;;;;;;;;;;;;;;;;;5015225;28;19921;-67
2022/01/21 04:28:47;;;;;;;;;;;;;;;;;;5015051;28;19922;-69
2022/01/21 04:31:14;;;;;;;;;;;;;;;;;;4997156;28;19922;-67
2022/01/21 04:33:40;;;;;;;;;;;;;;;;;;4995390;28;20328;-67
2022/01/21 04:36:07;;;;;;;;;;;;;;;;;;4995325;28;19922;-68
2022/01/21 04:38:33;;;;;;;;;;;;;;;;;;4995274;28;19921;-67
2022/01/21 04:41:23;;;;;;;;;;;;;;;;;;4995503;28;19948;-68
2022/01/21 04:49:16;;;;;;;;;;;;;;;;;;5014752;28;20342;-68
2022/01/21 04:52:02;;;;;;;;;;;;;;;;;;5014914;28;19969;-67
2022/01/21 04:54:32;;;;;;;;;;;;;;;;;;5011812;28;19925;-69
2022/01/21 04:56:58;;;;;;;;;;;;;;;;;;5014662;28;19967;-67
2022/01/21 04:59:25;;;;;;;;;;;;;;;;;;5014545;28;19921;-66
2022/01/21 05:01:52;;;;;;;;;;;;;;;;;;5013398;28;20342;-67
2022/01/21 05:04:19;;;;;;;;;;;;;;;;;;5014396;28;19921;-67
2022/01/21 05:06:47;;;;;;;;;;;;;;;;;;5014732;28;19948;-67
2022/01/21 05:09:17;;;;;;;;;;;;;;;;;;5014351;28;19976;-68
2022/01/21 05:11:44;;;;;;;;;;;;;;;;;;5014027;28;19968;-68
2022/01/21 05:14:23;;;;;;;;;;;;;;;;;;5014192;28;20346;-69
2022/01/21 05:16:52;;;;;;;;;;;;;;;;;;5014294;28;19925;-67
2022/01/21 05:19:19;;;;;;;;;;;;;;;;;;5013743;28;20335;-68
2022/01/21 05:21:46;;;;;;;;;;;;;;;;;;5014358;28;19923;-68
2022/01/21 05:24:16;;;;;;;;;;;;;;;;;;5014001;28;20346;-68
2022/01/21 05:26:52;;;;;;;;;;;;;;;;;;5014070;28;19977;-67
2022/01/21 05:29:19;;;;;;;;;;;;;;;;;;5012368;28;19921;-68
2022/01/21 05:31:46;;;;;;;;;;;;;;;;;;5004556;28;19964;-67
2022/01/21 05:34:12;;;;;;;;;;;;;;;;;;4994431;28;20355;-67
2022/01/21 05:36:40;;;;;;;;;;;;;;;;;;4994410;28;19921;-67
2022/01/21 05:39:07;;;;;;;;;;;;;;;;;;4994595;28;19925;-67
2022/01/21 05:41:34;;;;;;;;;;;;;;;;;;4994158;28;19929;-67
2022/01/21 05:49:20;;;;;;;;;;;;;;;;;;5013428;28;19921;-68
2022/01/21 05:51:46;;;;;;;;;;;;;;;;;;5013583;28;19925;-67
2022/01/21 05:54:13;;;;;;;;;;;;;;;;;;5013413;28;19925;-67
2022/01/21 05:56:40;;;;;;;;;;;;;;;;;;5001368;28;20381;-68
2022/01/21 05:59:07;;;;;;;;;;;;;;;;;;4993937;28;19992;-67
2022/01/21 06:01:34;;;;;;;;;;;;;;;;;;4992688;28;19921;-68
2022/01/21 06:04:01;;;;;;;;;;;;;;;;;;4993805;28;20008;-68
2022/01/21 06:06:28;;;;;;;;;;;;;;;;;;4993681;28;20294;-68
2022/01/21 06:08:54;;;;;;;;;;;;;;;;;;4993744;28;19968;-68
2022/01/21 06:11:21;;;;;;;;;;;;;;;;;;4993854;28;19922;-68
2022/01/21 06:13:49;;;;;;;;;;;;;;;;;;5003465;28;19922;-68
2022/01/21 06:16:19;;;;;;;;;;;;;;;;;;5013098;28;20371;-67
2022/01/21 06:18:46;;;;;;;;;;;;;;;;;;5013316;28;19921;-67
2022/01/21 06:21:12;;;;;;;;;;;;;;;;;;5013146;28;19926;-68
2022/01/21 06:23:39;;;;;;;;;;;;;;;;;;5012279;28;20367;-67
2022/01/21 06:26:05;;;;;;;;;;;;;;;;;;5013193;28;19983;-67
2022/01/21 06:28:32;;;;;;;;;;;;;;;;;;5013042;28;19925;-68
2022/01/21 06:30:58;;;;;;;;;;;;;;;;;;5013123;28;20008;-67
2022/01/21 06:33:25;;;;;;;;;;;;;;;;;;5012847;28;19922;-68
2022/01/21 06:35:52;;;;;;;;;;;;;;;;;;5013008;28;19945;-67
2022/01/21 06:38:19;;;;;;;;;;;;;;;;;;5012688;28;19968;-67
2022/01/21 06:40:46;;;;;;;;;;;;;;;;;;5013275;28;20414;-68
2022/01/21 06:43:13;;;;;;;;;;;;;;;;;;5012913;28;19972;-67
2022/01/21 06:45:40;;;;;;;;;;;;;;;;;;5012734;28;20273;-68
2022/01/21 06:48:06;;;;;;;;;;;;;;;;;;5012612;28;19925;-67
2022/01/21 06:50:33;;;;;;;;;;;;;;;;;;5012540;28;19925;-68
2022/01/21 06:53:00;;;;;;;;;;;;;;;;;;5011440;28;19921;-67
2022/01/21 06:55:26;;;;;;;;;;;;;;;;;;5012552;28;19987;-68
2022/01/21 06:57:53;;;;;;;;;;;;;;;;;;5012817;28;20453;-67
2022/01/21 07:00:20;;;;;;;;;;;;;;;;;;5011682;28;19921;-68
2022/01/21 07:02:46;;;;;;;;;;;;;;;;;;5012567;28;20016;-68
2022/01/21 07:05:13;;;;;;;;;;;;;;;;;;5010868;28;19968;-68
2022/01/21 07:07:40;;;;;;;;;;;;;;;;;;5010684;28;19983;-69
2022/01/21 07:10:07;;;;;;;;;;;;;;;;;;5010653;28;19929;-68
2022/01/21 07:12:34;;;;;;;;;;;;;;;;;;5003989;28;19936;-68
2022/01/21 07:15:00;;;;;;;;;;;;;;;;;;4991096;28;19926;-68
2022/01/21 07:17:26;;;;;;;;;;;;;;;;;;4990484;28;20000;-68
2022/01/21 07:19:53;;;;;;;;;;;;;;;;;;4990751;28;19930;-68
2022/01/21 07:22:19;;;;;;;;;;;;;;;;;;4990929;28;19968;-68
2022/01/21 07:24:46;;;;;;;;;;;;;;;;;;4997578;28;19921;-69
2022/01/21 07:27:12;;;;;;;;;;;;;;;;;;4991820;28;19980;-70
2022/01/21 07:29:39;;;;;;;;;;;;;;;;;;4990941;28;19929;-68
2022/01/21 07:32:05;;;;;;;;;;;;;;;;;;4990593;28;20331;-67
2022/01/21 07:34:32;;;;;;;;;;;;;;;;;;4992917;28;19976;-68
2022/01/21 07:36:58;;;;;;;;;;;;;;;;;;4994847;28;19921;-70
2022/01/21 07:39:25;;;;;;;;;;;;;;;;;;4994548;28;19922;-68
2022/01/21 07:41:51;;;;;;;;;;;;;;;;;;4994701;28;19929;-68
2022/01/21 07:44:18;;;;;;;;;;;;;;;;;;4994119;28;19973;-68
2022/01/21 07:46:45;;;;;;;;;;;;;;;;;;4994680;28;19922;-67
2022/01/21 07:49:11;;;;;;;;;;;;;;;;;;4994460;28;20384;-68
2022/01/21 07:51:38;;;;;;;;;;;;;;;;;;4994523;28;19925;-67
2022/01/21 07:54:04;;;;;;;;;;;;;;;;;;4994231;28;19922;-67
2022/01/21 07:56:33;;;;;;;;;;;;;;;;;;4994134;28;19921;-69
2022/01/21 07:59:00;;;;;;;;;;;;;;;;;;4993905;28;19929;-69
2022/01/21 08:01:26;;;;;;;;;;;;;;;;;;4994251;28;20389;-68
2022/01/21 08:03:53;;;;;;;;;;;;;;;;;;4996350;28;20340;-70
2022/01/21 08:06:20;;;;;;;;;;;;;;;;;;4994152;28;20432;-69
2022/01/21 08:08:46;;;;;;;;;;;;;;;;;;4994054;28;20344;-67
2022/01/21 08:11:13;;;;;;;;;;;;;;;;;;4993544;28;19921;-68
2022/01/21 08:13:39;;;;;;;;;;;;;;;;;;4993800;28;19984;-69
2022/01/21 08:16:06;;;;;;;;;;;;;;;;;;5009173;28;20056;-67
2022/01/21 08:18:32;;;;;;;;;;;;;;;;;;5013018;28;19925;-66
2022/01/21 08:24:06;;;;;;;;;;;;;;;;;;5010991;28;19921;-66
2022/01/21 08:26:32;;;;;;;;;;;;;;;;;;5004705;28;19979;-67
2022/01/21 08:28:59;;;;;;;;;;;;;;;;;;5013018;28;19921;-66
2022/01/21 08:31:25;;;;;;;;;;;;;;;;;;5013034;28;19921;-67
2022/01/21 08:33:52;;;;;;;;;;;;;;;;;;5006224;28;20285;-70
2022/01/21 08:36:19;;;;;;;;;;;;;;;;;;4995677;28;19925;-70
2022/01/21 08:38:46;;;;;;;;;;;;;;;;;;5006482;28;19922;-69
2022/01/21 08:41:12;;;;;;;;;;;;;;;;;;5002941;28;19981;-72
2022/01/21 08:43:39;;;;;;;;;;;;;;;;;;4999599;28;19925;-71
2022/01/21 08:46:05;;;;;;;;;;;;;;;;;;5002409;28;19949;-71
2022/01/21 08:48:32;;;;;;;;;;;;;;;;;;4997333;28;19948;-72
2022/01/21 08:51:01;;;;;;;;;;;;;;;;;;4998944;28;20323;-72
2022/01/21 08:53:38;;;;;;;;;;;;;;;;;;4997924;28;20344;-69
2022/01/21 08:56:06;;;;;;;;;;;;;;;;;;5043233;23;19929;-73
2022/01/21 08:58:35;;;;;;;;;;;;;;;;;;5019259;28;20470;-74
2022/01/21 09:01:02;;;;;;;;;;;;;;;;;;5011750;28;19921;-74
2022/01/21 09:03:29;;;;;;;;;;;;;;;;;;5011968;28;20389;-73
2022/01/21 09:05:55;;;;;;;;;;;;;;;;;;5017853;28;19925;-70
2022/01/21 09:08:23;;;;;;;;;;;;;;;;;;5032551;28;19929;-70
2022/01/21 09:10:50;;;;;;;;;;;;;;;;;;5036686;28;19975;-73
2022/01/21 09:13:16;;;;;;;;;;;;;;;;;;5031814;28;19974;-68
2022/01/21 09:15:43;;;;;;;;;;;;;;;;;;5033579;28;19974;-69
2022/01/21 09:18:10;;;;;;;;;;;;;;;;;;5033639;28;20306;-66
2022/01/21 09:20:37;;;;;;;;;;;;;;;;;;5033018;28;19929;-69
2022/01/21 09:23:04;;;;;;;;;;;;;;;;;;5033791;28;19948;-70
2022/01/21 09:25:31;;;;;;;;;;;;;;;;;;5032826;28;20383;-72
2022/01/21 09:28:01;;;;;;;;;;;;;;;;;;5032624;28;19929;-71
2022/01/21 09:30:28;;;;;;;;;;;;;;;;;;5032472;28;20450;-71
2022/01/21 09:32:56;;;;;;;;;;;;;;;;;;5033151;28;19983;-69
2022/01/21 09:35:23;;;;;;;;;;;;;;;;;;5033177;28;19924;-69
2022/01/21 09:37:49;;;;;;;;;;;;;;;;;;5032553;28;19920;-71
2022/01/21 09:40:39;;;;;;;;;;;;;;;;;;5032144;28;20116;-72
2022/01/21 09:43:06;;;;;;;;;;;;;;;;;;5032274;28;20337;-72
2022/01/21 09:45:32;;;;;;;;;;;;;;;;;;5031106;28;20027;-71
2022/01/21 09:48:01;;;;;;;;;;;;;;;;;;5031743;28;19983;-72
2022/01/21 09:50:28;;;;;;;;;;;;;;;;;;5030287;28;19921;-76
2022/01/21 09:52:54;;;;;;;;;;;;;;;;;;5034213;28;19971;-70
2022/01/21 09:55:22;;;;;;;;;;;;;;;;;;5032014;28;19921;-75
2022/01/21 09:57:49;;;;;;;;;;;;;;;;;;5030710;28;19921;-71
2022/01/21 10:00:16;;;;;;;;;;;;;;;;;;5030285;28;19963;-72
2022/01/21 10:02:45;;;;;;;;;;;;;;;;;;5033853;28;20357;-72
2022/01/21 10:05:13;;;;;;;;;;;;;;;;;;5032819;28;20422;-70
2022/01/21 10:07:41;;;;;;;;;;;;;;;;;;5034670;28;19921;-71
2022/01/21 10:10:12;;;;;;;;;;;;;;;;;;5031981;28;19924;-71
2022/01/21 10:12:49;;;;;;;;;;;;;;;;;;5031927;28;19972;-69
2022/01/21 10:15:15;;;;;;;;;;;;;;;;;;5035557;28;20274;-69
2022/01/21 10:18:08;;;;;;;;;;;;;;;;;;5031474;28;20318;-70
2022/01/21 10:20:37;;;;;;;;;;;;;;;;;;5030745;28;19975;-69
2022/01/21 10:23:04;;;;;;;;;;;;;;;;;;5031008;28;19927;-70
2022/01/21 10:25:30;;;;;;;;;;;;;;;;;;5031501;28;19929;-71
2022/01/21 10:28:30;;;;;;;;;;;;;;;;;;5032061;28;19929;-69
2022/01/21 10:31:18;;;;;;;;;;;;;;;;;;5026348;28;19921;-69
2022/01/21 10:33:46;;;;;;;;;;;;;;;;;;5030211;28;19944;-70
2022/01/21 10:36:28;;;;;;;;;;;;;;;;;;5031394;28;19925;-70
2022/01/21 10:39:00;;;;;;;;;;;;;;;;;;5040317;28;19920;-69
2022/01/21 10:41:31;;;;;;;;;;;;;;;;;;5029320;28;19929;-70
2022/01/21 10:44:07;;;;;;;;;;;;;;;;;;5026459;28;19928;-72
2022/01/21 10:46:34;;;;;;;;;;;;;;;;;;5027943;28;19921;-69
2022/01/21 10:49:07;;;;;;;;;;;;;;;;;;5030853;28;20046;-69
2022/01/21 10:51:36;;;;;;;;;;;;;;;;;;5030871;28;20297;-71
2022/01/21 10:54:22;;;;;;;;;;;;;;;;;;5030939;28;19966;-72
2022/01/21 10:57:07;;;;;;;;;;;;;;;;;;5034453;28;19929;-70
2022/01/21 10:59:48;;;;;;;;;;;;;;;;;;5031245;28;19983;-72
2022/01/21 11:02:15;;;;;;;;;;;;;;;;;;5030769;28;20345;-72
2022/01/21 11:04:42;;;;;;;;;;;;;;;;;;5039198;28;19979;-72
2022/01/21 11:07:11;;;;;;;;;;;;;;;;;;5040108;28;20395;-69
2022/01/21 11:09:38;;;;;;;;;;;;;;;;;;5042963;28;20404;-69
2022/01/21 11:12:12;;;;;;;;;;;;;;;;;;5035293;28;19994;-71
2022/01/21 11:14:54;;;;;;;;;;;;;;;;;;5037813;28;20317;-70
2022/01/21 11:17:20;;;;;;;;;;;;;;;;;;5045608;28;19920;-69
2022/01/21 11:20:04;;;;;;;;;;;;;;;;;;5041555;28;19925;-70
2022/01/21 11:22:30;;;;;;;;;;;;;;;;;;5039512;28;19921;-69
2022/01/21 11:24:59;;;;;;;;;;;;;;;;;;5042329;28;19925;-69
2022/01/21 11:27:26;;;;;;;;;;;;;;;;;;5042086;28;19941;-69
2022/01/21 11:29:55;;;;;;;;;;;;;;;;;;5042278;28;19924;-69
2022/01/21 11:32:22;;;;;;;;;;;;;;;;;;5038914;28;19925;-70
2022/01/21 11:34:49;;;;;;;;;;;;;;;;;;5045936;28;19943;-69
2022/01/21 11:37:15;;;;;;;;;;;;;;;;;;5041136;28;19921;-69
2022/01/21 11:39:42;;;;;;;;;;;;;;;;;;5044364;28;19947;-67
2022/01/21 11:42:08;;;;;;;;;;;;;;;;;;5035017;28;19983;-70
2022/01/21 11:44:38;;;;;;;;;;;;;;;;;;5039979;28;19951;-69
2022/01/21 11:47:17;;;;;;;;;;;;;;;;;;5020052;28;19920;-68
2022/01/21 11:49:54;;;;;;;;;;;;;;;;;;5041158;28;19925;-69
2022/01/21 11:52:21;;;;;;;;;;;;;;;;;;5030599;28;20410;-69
2022/01/21 11:54:48;;;;;;;;;;;;;;;;;;5037035;28;19930;-69
2022/01/21 11:57:15;;;;;;;;;;;;;;;;;;5029775;28;19975;-65
2022/01/21 11:59:55;;;;;;;;;;;;;;;;;;5031143;28;20770;-69
2022/01/21 12:02:23;;;;;;;;;;;;;;;;;;5033344;28;19936;-70
2022/01/21 12:04:53;;;;;;;;;;;;;;;;;;5030840;28;19921;-70
2022/01/21 12:10:05;;;;;;;;;;;;;;;;;;5031817;28;19967;-70
2022/01/21 12:12:53;;;;;;;;;;;;;;;;;;5031993;28;19979;-70
2022/01/21 12:15:22;;;;;;;;;;;;;;;;;;5030377;28;19929;-71
2022/01/21 12:17:54;;;;;;;;;;;;;;;;;;5030362;28;19947;-70
2022/01/21 12:20:46;;;;;;;;;;;;;;;;;;5027623;28;19967;-70
2022/01/21 12:23:15;;;;;;;;;;;;;;;;;;5041680;28;19975;-69
2022/01/21 12:26:00;;;;;;;;;;;;;;;;;;5044319;28;19966;-70
2022/01/21 12:28:26;;;;;;;;;;;;;;;;;;5043427;28;20307;-70
2022/01/21 12:30:53;;;;;;;;;;;;;;;;;;5044876;28;20341;-70
2022/01/21 12:33:20;;;;;;;;;;;;;;;;;;5040363;28;19959;-72
2022/01/21 12:35:47;;;;;;;;;;;;;;;;;;5043074;28;19925;-71
2022/01/21 12:40:55;;;;;;;;;;;;;;;;;;5045221;28;19924;-69
2022/01/21 12:43:40;;;;;;;;;;;;;;;;;;5043854;28;19925;-69
2022/01/21 12:46:08;;;;;;;;;;;;;;;;;;5044926;28;19947;-70
2022/01/21 12:48:36;;;;;;;;;;;;;;;;;;5045262;28;19972;-69
2022/01/21 12:56:40;;;;;;;;;;;;;;;;;;5043457;28;19974;-69
2022/01/21 12:59:06;;;;;;;;;;;;;;;;;;5046929;28;19920;-69
2022/01/21 13:01:39;;;;;;;;;;;;;;;;;;5038426;28;19980;-69
2022/01/21 13:04:07;;;;;;;;;;;;;;;;;;5040217;28;19925;-69
2022/01/21 13:06:45;;;;;;;;;;;;;;;;;;5031692;28;19975;-69
2022/01/21 13:09:17;;;;;;;;;;;;;;;;;;5042519;28;19921;-69
2022/01/21 13:11:52;;;;;;;;;;;;;;;;;;5042109;28;19935;-70
2022/01/21 13:17:02;;;;;;;;;;;;;;;;;;5037194;28;19925;-69
2022/01/21 13:19:30;;;;;;;;;;;;;;;;;;5033774;28;19920;-74
2022/01/21 13:21:56;;;;;;;;;;;;;;;;;;5034869;28;19921;-71
2022/01/21 13:24:31;;;;;;;;;;;;;;;;;;5039348;28;19936;-71
2022/01/21 13:26:58;;;;;;;;;;;;;;;;;;5036652;28;20047;-72
2022/01/21 13:29:31;;;;;;;;;;;;;;;;;;5037801;28;19974;-72
2022/01/21 13:31:59;;;;;;;;;;;;;;;;;;5030538;28;19928;-73
2022/01/21 13:34:28;;;;;;;;;;;;;;;;;;5037780;28;20375;-70
2022/01/21 13:36:56;;;;;;;;;;;;;;;;;;5038178;28;20261;-68
2022/01/21 13:39:24;;;;;;;;;;;;;;;;;;5031307;28;19928;-68
2022/01/21 13:41:57;;;;;;;;;;;;;;;;;;5039744;28;19971;-72
2022/01/21 13:44:24;;;;;;;;;;;;;;;;;;5034784;28;19928;-68
2022/01/21 13:46:51;;;;;;;;;;;;;;;;;;5040343;28;19921;-70
2022/01/21 13:49:21;;;;;;;;;;;;;;;;;;5039182;28;19987;-71
2022/01/21 13:52:05;;;;;;;;;;;;;;;;;;5041208;28;19929;-69
2022/01/21 13:54:50;;;;;;;;;;;;;;;;;;5032631;28;19928;-69
2022/01/21 13:57:25;;;;;;;;;;;;;;;;;;5030711;28;19924;-72
2022/01/21 13:59:56;;;;;;;;;;;;;;;;;;5029119;28;20380;-69
2022/01/21 14:02:23;;;;;;;;;;;;;;;;;;5039654;28;20344;-70
2022/01/21 14:05:08;;;;;;;;;;;;;;;;;;5042267;28;19921;-73
2022/01/21 14:07:35;;;;;;;;;;;;;;;;;;5041857;28;19928;-70
2022/01/21 14:10:02;;;;;;;;;;;;;;;;;;5041894;28;19935;-71
2022/01/21 14:12:29;;;;;;;;;;;;;;;;;;5043804;28;19929;-71
2022/01/21 14:14:56;;;;;;;;;;;;;;;;;;5042630;28;19966;-73
2022/01/21 14:17:25;;;;;;;;;;;;;;;;;;5043967;28;19974;-71
2022/01/21 14:20:00;;;;;;;;;;;;;;;;;;5038695;28;19925;-72
2022/01/21 14:22:26;;;;;;;;;;;;;;;;;;5037390;28;19932;-74
2022/01/21 14:24:53;;;;;;;;;;;;;;;;;;5042530;28;19952;-75
2022/01/21 14:27:23;;;;;;;;;;;;;;;;;;5042769;28;19929;-73
2022/01/21 14:29:52;;;;;;;;;;;;;;;;;;5044544;28;20283;-71
2022/01/21 14:32:20;;;;;;;;;;;;;;;;;;5041395;28;19978;-74
2022/01/21 14:34:47;;;;;;;;;;;;;;;;;;5037479;28;19924;-70
2022/01/21 14:37:14;;;;;;;;;;;;;;;;;;5042343;28;19920;-70
2022/01/21 14:39:47;;;;;;;;;;;;;;;;;;5043398;28;19920;-68
2022/01/21 14:42:24;;;;;;;;;;;;;;;;;;5037963;28;19929;-72
2022/01/21 14:44:57;;;;;;;;;;;;;;;;;;5041141;28;19972;-70
2022/01/21 14:47:28;;;;;;;;;;;;;;;;;;5037351;28;19920;-70
2022/01/21 14:50:06;;;;;;;;;;;;;;;;;;5040662;28;19925;-71
2022/01/21 14:52:42;;;;;;;;;;;;;;;;;;5038913;28;20508;-71
2022/01/21 14:55:31;;;;;;;;;;;;;;;;;;5037829;28;19920;-71
2022/01/21 14:57:59;;;;;;;;;;;;;;;;;;5063705;23;19925;-67
2022/01/21 15:00:25;;;;;;;;;;;;;;;;;;5028528;28;19928;-65
2022/01/21 15:03:03;;;;;;;;;;;;;;;;;;5030388;28;19921;-67
2022/01/21 15:05:30;;;;;;;;;;;;;;;;;;5029077;28;20083;-66
2022/01/21 15:07:56;;;;;;;;;;;;;;;;;;5038681;28;19956;-69
2022/01/21 15:10:36;;;;;;;;;;;;;;;;;;5041841;28;19928;-68
2022/01/21 15:16:11;;;;;;;;;;;;;;;;;;5040562;28;19975;-68
2022/01/21 15:18:38;;;;;;;;;;;;;;;;;;5041984;28;19925;-71
2022/01/21 15:21:05;;;;;;;;;;;;;;;;;;5042296;28;19921;-71
2022/01/21 15:23:31;;;;;;;;;;;;;;;;;;5037949;28;19928;-69
2022/01/21 15:25:59;;;;;;;;;;;;;;;;;;5040573;28;19921;-69
2022/01/21 15:28:26;;;;;;;;;;;;;;;;;;5039905;28;19921;-71
2022/01/21 15:30:52;;;;;;;;;;;;;;;;;;5040245;28;19921;-70
2022/01/21 15:33:19;;;;;;;;;;;;;;;;;;5039873;28;19921;-72
2022/01/21 15:35:45;;;;;;;;;;;;;;;;;;5040455;28;19983;-68
2022/01/21 15:38:13;;;;;;;;;;;;;;;;;;5040550;28;19925;-70
2022/01/21 15:40:39;;;;;;;;;;;;;;;;;;5038867;28;19978;-69
2022/01/21 15:43:05;;;;;;;;;;;;;;;;;;5033750;28;19925;-69
2022/01/21 15:45:32;;;;;;;;;;;;;;;;;;5037260;28;19986;-69
2022/01/21 15:47:59;;;;;;;;;;;;;;;;;;5040028;28;19956;-67
2022/01/21 15:50:25;;;;;;;;;;;;;;;;;;5040458;28;20425;-65
2022/01/21 15:52:52;;;;;;;;;;;;;;;;;;5038241;28;19951;-67
2022/01/21 15:55:19;;;;;;;;;;;;;;;;;;5040558;28;20698;-67
2022/01/21 15:57:45;;;;;;;;;;;;;;;;;;5043670;28;19987;-67
2022/01/21 16:00:16;;;;;;;;;;;;;;;;;;5042185;28;19924;-66
2022/01/21 16:02:43;;;;;;;;;;;;;;;;;;5039652;28;19925;-66
2022/01/21 16:05:09;;;;;;;;;;;;;;;;;;5040169;28;19920;-66
2022/01/21 16:07:36;;;;;;;;;;;;;;;;;;5041286;28;19924;-68
2022/01/21 16:10:03;;;;;;;;;;;;;;;;;;5042224;28;20357;-65
2022/01/21 16:12:29;;;;;;;;;;;;;;;;;;5039636;28;19978;-66
2022/01/21 16:14:56;;;;;;;;;;;;;;;;;;5037650;28;19939;-65
2022/01/21 16:17:25;;;;;;;;;;;;;;;;;;5043772;28;19986;-66
2022/01/21 16:19:54;;;;;;;;;;;;;;;;;;5039597;28;19925;-66
2022/01/21 16:22:20;;;;;;;;;;;;;;;;;;5041394;28;19925;-65
2022/01/21 16:24:47;;;;;;;;;;;;;;;;;;5040605;28;19925;-67
2022/01/21 16:27:13;;;;;;;;;;;;;;;;;;5042887;28;19933;-67
2022/01/21 16:29:40;;;;;;;;;;;;;;;;;;5044462;28;19927;-66
2022/01/21 16:32:06;;;;;;;;;;;;;;;;;;5043595;28;19921;-66
2022/01/21 16:34:34;;;;;;;;;;;;;;;;;;5040051;28;19921;-68
2022/01/21 16:37:02;;;;;;;;;;;;;;;;;;5041158;28;20010;-67
2022/01/21 16:39:28;;;;;;;;;;;;;;;;;;5043545;28;20007;-68
2022/01/21 16:41:55;;;;;;;;;;;;;;;;;;5039901;28;19982;-68
2022/01/21 16:44:21;;;;;;;;;;;;;;;;;;5037611;28;19924;-66
2022/01/21 16:46:48;;;;;;;;;;;;;;;;;;5040886;28;20355;-66
2022/01/21 16:49:14;;;;;;;;;;;;;;;;;;5043815;28;20414;-67
2022/01/21 16:51:41;;;;;;;;;;;;;;;;;;5038980;28;19978;-68
2022/01/21 16:54:07;;;;;;;;;;;;;;;;;;5041417;28;19925;-68
2022/01/21 16:56:39;;;;;;;;;;;;;;;;;;5040701;28;19927;-68
2022/01/21 16:59:06;;;;;;;;;;;;;;;;;;5043445;28;19921;-70
2022/01/21 17:01:32;;;;;;;;;;;;;;;;;;5043058;28;19927;-69
2022/01/21 17:03:59;;;;;;;;;;;;;;;;;;5036219;28;19929;-69
2022/01/21 17:06:26;;;;;;;;;;;;;;;;;;5042320;28;19931;-70
2022/01/21 17:08:54;;;;;;;;;;;;;;;;;;5041965;28;20039;-69
2022/01/21 17:11:20;;;;;;;;;;;;;;;;;;5044466;28;19932;-70
2022/01/21 17:13:47;;;;;;;;;;;;;;;;;;5040662;28;19924;-69
2022/01/21 17:16:13;;;;;;;;;;;;;;;;;;5044698;28;19928;-70
2022/01/21 17:18:40;;;;;;;;;;;;;;;;;;5040619;28;20403;-70
2022/01/21 17:21:06;;;;;;;;;;;;;;;;;;5037749;28;19995;-71
2022/01/21 17:23:33;;;;;;;;;;;;;;;;;;5043864;28;19925;-70
2022/01/21 17:25:59;;;;;;;;;;;;;;;;;;5041635;28;20465;-69
2022/01/21 17:28:26;;;;;;;;;;;;;;;;;;5037390;28;19925;-68
2022/01/21 17:30:53;;;;;;;;;;;;;;;;;;5042259;28;19925;-69
2022/01/21 17:33:20;;;;;;;;;;;;;;;;;;5037261;28;20346;-69
2022/01/21 17:35:47;;;;;;;;;;;;;;;;;;5043693;28;19924;-69
2022/01/21 17:38:16;;;;;;;;;;;;;;;;;;5037814;28;19925;-70
2022/01/21 17:40:45;;;;;;;;;;;;;;;;;;5043210;28;19950;-69
2022/01/21 17:43:11;;;;;;;;;;;;;;;;;;5041182;28;19920;-69
2022/01/21 17:45:38;;;;;;;;;;;;;;;;;;5041267;28;20395;-69
2022/01/21 17:48:05;;;;;;;;;;;;;;;;;;5043370;28;19979;-69
2022/01/21 17:50:33;;;;;;;;;;;;;;;;;;5040247;28;19998;-69
2022/01/21 17:53:00;;;;;;;;;;;;;;;;;;5038519;28;19928;-71
2022/01/21 17:55:27;;;;;;;;;;;;;;;;;;5039424;28;19966;-69
2022/01/21 17:57:56;;;;;;;;;;;;;;;;;;5043423;28;19921;-70
2022/01/21 18:00:24;;;;;;;;;;;;;;;;;;5037879;28;19929;-69
2022/01/21 18:02:51;;;;;;;;;;;;;;;;;;5038667;28;19921;-69
2022/01/21 18:05:18;;;;;;;;;;;;;;;;;;5040396;28;19921;-70
2022/01/21 18:07:44;;;;;;;;;;;;;;;;;;5041890;28;19921;-70